Time;durP1;ratioP1;P1;durP2;ratioP2;P2;SDS_P1;SDS_P2;PMS_P1;PMS_P2;Temp;Humidity;BMP_temperature;BMP_pressure;BME280_temperature;BME280_humidity;BME280_pressure;Samples;Min_cycle;Max_cycle;Signal;HPM_P1;HPM_P2
2023/03/04 00:01:46;;;;;;;3.77;3.57;;;2.50;99.50;;;;;;5053552;28;20310;-72
2023/03/04 00:04:12;;;;;;;0.80;0.80;;;2.40;99.60;;;;;;5053667;28;20412;-71
2023/03/04 00:06:38;;;;;;;1.38;1.05;;;2.30;99.80;;;;;;5053919;28;20220;-71
2023/03/04 00:09:04;;;;;;;2.90;2.70;;;2.30;99.90;;;;;;5053573;28;20204;-71
2023/03/04 00:11:31;;;;;;;2.70;1.93;;;2.20;99.90;;;;;;5036104;28;20423;-71
2023/03/04 00:13:57;;;;;;;2.22;2.15;;;2.30;99.90;;;;;;5053505;28;20753;-71
2023/03/04 00:16:26;;;;;;;0.73;0.73;;;2.30;99.90;;;;;;5053665;28;20188;-71
2023/03/04 00:18:52;;;;;;;3.42;2.03;;;2.40;99.90;;;;;;5053653;28;20436;-71
2023/03/04 00:21:18;;;;;;;4.47;4.18;;;2.50;99.90;;;;;;5053340;28;20206;-71
2023/03/04 00:23:44;;;;;;;1.37;1.37;;;2.50;99.70;;;;;;5053138;28;20185;-71
2023/03/04 00:26:09;;;;;;;0.90;0.90;;;2.40;99.70;;;;;;5053405;28;20181;-70
2023/03/04 00:28:35;;;;;;;1.80;1.70;;;2.30;99.80;;;;;;5053239;28;20172;-71
2023/03/04 00:31:01;;;;;;;1.40;1.30;;;2.20;99.90;;;;;;5053213;28;20177;-71
2023/03/04 00:33:26;;;;;;;3.40;3.00;;;2.20;99.90;;;;;;5053305;28;20188;-71
2023/03/04 00:35:52;;;;;;;4.43;4.07;;;2.20;99.90;;;;;;5053621;28;20212;-71
2023/03/04 00:38:18;;;;;;;4.27;3.90;;;2.20;99.80;;;;;;5053785;28;20173;-71
2023/03/04 00:40:43;;;;;;;1.90;1.47;;;2.20;99.80;;;;;;5053219;28;20189;-71
2023/03/04 00:43:09;;;;;;;1.40;1.40;;;2.20;99.80;;;;;;5053031;28;20210;-71
2023/03/04 00:45:34;;;;;;;4.03;3.40;;;2.20;99.80;;;;;;5053099;28;20247;-72
2023/03/04 00:48:00;;;;;;;0.70;0.70;;;2.20;99.90;;;;;;5053090;28;20168;-71
2023/03/04 00:50:26;;;;;;;1.73;1.63;;;2.20;99.90;;;;;;5035516;28;20197;-71
2023/03/04 00:52:51;;;;;;;4.50;4.10;;;2.10;99.90;;;;;;5053572;28;20178;-71
2023/03/04 00:55:17;;;;;;;2.90;2.70;;;2.10;99.90;;;;;;5034861;28;20181;-71
2023/03/04 00:57:43;;;;;;;1.00;1.00;;;2.10;99.90;;;;;;5053046;28;20207;-72
2023/03/04 01:00:09;;;;;;;2.60;2.40;;;2.10;99.90;;;;;;5052889;28;20192;-71
2023/03/04 01:02:35;;;;;;;0.80;0.80;;;2.00;99.90;;;;;;5052995;28;20684;-71
2023/03/04 01:05:00;;;;;;;6.87;4.50;;;1.80;99.90;;;;;;5053043;28;20184;-71
2023/03/04 01:07:26;;;;;;;2.70;2.60;;;1.80;99.90;;;;;;5053392;28;20170;-71
2023/03/04 01:09:52;;;;;;;5.50;4.37;;;1.80;99.90;;;;;;5034887;28;20201;-72
2023/03/04 01:12:18;;;;;;;1.80;1.70;;;1.90;99.90;;;;;;5052863;28;20184;-71
2023/03/04 01:14:43;;;;;;;1.47;1.40;;;2.00;99.90;;;;;;5052773;28;20184;-71
2023/03/04 01:17:11;;;;;;;1.33;1.33;;;2.00;99.90;;;;;;5053037;28;20414;-72
2023/03/04 01:19:36;;;;;;;1.90;1.40;;;1.90;99.90;;;;;;5052702;28;20551;-71
2023/03/04 01:22:02;;;;;;;4.53;4.30;;;2.00;99.90;;;;;;5052533;28;20195;-71
2023/03/04 01:24:29;;;;;;;3.30;3.07;;;2.00;99.90;;;;;;5052693;28;20904;-71
2023/03/04 01:26:54;;;;;;;2.75;2.65;;;2.10;99.90;;;;;;5034793;28;20415;-71
2023/03/04 01:29:20;;;;;;;3.33;3.03;;;2.00;99.80;;;;;;5052820;28;20194;-71
2023/03/04 01:31:46;;;;;;;2.33;2.23;;;2.00;99.90;;;;;;5052920;28;20181;-71
2023/03/04 01:34:12;;;;;;;0.90;0.90;;;1.90;99.90;;;;;;5054916;28;20448;-71
2023/03/04 01:36:37;;;;;;;0.80;0.80;;;1.80;99.90;;;;;;5056816;28;20177;-71
2023/03/04 01:39:03;;;;;;;6.63;3.53;;;1.80;99.90;;;;;;5038958;28;20204;-70
2023/03/04 01:41:29;;;;;;;4.68;3.42;;;1.90;99.90;;;;;;5056137;28;20707;-72
2023/03/04 01:43:56;;;;;;;0.60;0.60;;;1.90;99.90;;;;;;5056147;28;20189;-71
2023/03/04 01:46:23;;;;;;;1.60;1.15;;;2.00;99.90;;;;;;5056173;28;20212;-70
2023/03/04 01:48:48;;;;;;;1.27;1.27;;;2.00;99.80;;;;;;5056404;28;20184;-71
2023/03/04 01:51:17;;;;;;;1.23;1.23;;;2.00;99.80;;;;;;5038708;28;20172;-71
2023/03/04 01:53:45;;;;;;;1.48;1.48;;;2.00;99.70;;;;;;5056262;28;20176;-71
2023/03/04 01:56:22;;;;;;;0.43;0.43;;;1.90;99.70;;;;;;5056204;28;20261;-71
2023/03/04 01:59:17;;;;;;;0.40;0.40;;;1.80;99.90;;;;;;5056105;28;20183;-71
2023/03/04 02:01:46;;;;;;;0.70;0.70;;;1.80;99.90;;;;;;5055828;28;20219;-71
2023/03/04 02:04:14;;;;;;;2.55;2.35;;;1.70;99.90;;;;;;5055958;28;20208;-71
2023/03/04 02:06:40;;;;;;;1.75;1.65;;;1.70;99.90;;;;;;5037993;28;20176;-71
2023/03/04 02:09:07;;;;;;;4.15;3.75;;;1.80;99.90;;;;;;5055780;28;20196;-71
2023/03/04 02:11:34;;;;;;;1.63;1.63;;;1.70;99.90;;;;;;5056072;28;20551;-72
2023/03/04 02:14:00;;;;;;;0.80;0.70;;;1.70;99.90;;;;;;5037992;28;20173;-71
2023/03/04 02:16:26;;;;;;;1.63;1.63;;;1.60;99.90;;;;;;5055647;28;20188;-70
2023/03/04 02:18:52;;;;;;;5.03;4.80;;;1.60;99.90;;;;;;5055424;28;20196;-71
2023/03/04 02:21:22;;;;;;;6.03;5.40;;;1.60;99.90;;;;;;5055293;28;20208;-71
2023/03/04 02:24:02;;;;;;;3.30;3.10;;;1.60;99.90;;;;;;5037375;28;20255;-71
2023/03/04 02:26:33;;;;;;;2.13;2.08;;;1.60;99.90;;;;;;5055922;28;20617;-71
2023/03/04 02:29:00;;;;;;;1.52;1.52;;;1.50;99.90;;;;;;5037907;28;20283;-71
2023/03/04 02:31:26;;;;;;;2.72;2.58;;;1.50;99.90;;;;;;5037483;28;20177;-72
2023/03/04 02:33:54;;;;;;;1.53;1.53;;;1.50;99.90;;;;;;5055068;28;20172;-71
2023/03/04 02:36:21;;;;;;;1.85;1.35;;;1.50;99.90;;;;;;5055620;28;20173;-71
2023/03/04 02:38:49;;;;;;;7.80;2.58;;;1.40;99.90;;;;;;5055422;28;20189;-71
2023/03/04 02:41:19;;;;;;;3.17;2.97;;;1.40;99.90;;;;;;5055509;28;20169;-71
2023/03/04 02:43:48;;;;;;;9.27;3.15;;;1.40;99.90;;;;;;5037458;28;20176;-71
2023/03/04 02:46:14;;;;;;;2.83;2.47;;;1.40;99.90;;;;;;5036185;28;20176;-71
2023/03/04 02:48:40;;;;;;;1.03;1.03;;;1.40;99.90;;;;;;5037250;28;20191;-72
2023/03/04 02:51:05;;;;;;;1.80;1.73;;;1.40;99.90;;;;;;5055358;28;20184;-71
2023/03/04 02:53:31;;;;;;;6.10;2.60;;;1.30;99.90;;;;;;5055028;28;20188;-71
2023/03/04 02:55:56;;;;;;;2.67;2.57;;;1.30;99.90;;;;;;5055348;28;20260;-71
2023/03/04 02:58:22;;;;;;;1.47;1.43;;;1.20;99.90;;;;;;5054940;28;20255;-71
2023/03/04 03:00:48;;;;;;;2.70;2.60;;;1.20;99.90;;;;;;5054976;28;20222;-71
2023/03/04 03:03:13;;;;;;;1.17;1.17;;;1.40;99.90;;;;;;5036735;28;20209;-71
2023/03/04 03:05:39;;;;;;;1.17;1.17;;;1.40;99.90;;;;;;5054925;28;20178;-71
2023/03/04 03:08:05;;;;;;;0.60;0.60;;;1.40;99.90;;;;;;5054982;28;20250;-72
2023/03/04 03:10:31;;;;;;;1.17;1.17;;;1.40;99.90;;;;;;5054593;28;20266;-71
2023/03/04 03:12:57;;;;;;;4.17;3.87;;;1.40;99.90;;;;;;5054459;28;20642;-71
2023/03/04 03:15:23;;;;;;;2.47;2.33;;;1.30;99.90;;;;;;5054283;28;20430;-71
2023/03/04 03:17:49;;;;;;;0.70;0.70;;;1.40;99.90;;;;;;5036683;28;20176;-72
2023/03/04 03:20:15;;;;;;;0.60;0.60;;;1.40;99.90;;;;;;5054668;28;20980;-72
2023/03/04 03:22:41;;;;;;;5.25;4.78;;;1.30;99.90;;;;;;5054793;28;20566;-72
2023/03/04 03:25:09;;;;;;;3.30;3.20;;;1.40;99.90;;;;;;5054041;28;20234;-72
2023/03/04 03:27:35;;;;;;;2.25;2.05;;;1.40;99.90;;;;;;5054401;28;20412;-72
2023/03/04 03:30:01;;;;;;;1.13;1.13;;;1.40;99.90;;;;;;5054023;28;20203;-71
2023/03/04 03:32:26;;;;;;;0.80;0.80;;;1.50;99.90;;;;;;5054415;28;20219;-71
2023/03/04 03:34:52;;;;;;;1.53;0.93;;;1.50;99.90;;;;;;5054242;28;20499;-72
2023/03/04 03:37:18;;;;;;;3.20;2.93;;;1.40;99.90;;;;;;5036093;28;20184;-71
2023/03/04 03:39:43;;;;;;;3.37;3.17;;;1.40;99.90;;;;;;5036256;28;20254;-71
2023/03/04 03:42:09;;;;;;;0.80;0.80;;;1.50;99.90;;;;;;5036215;28;20217;-71
2023/03/04 03:44:34;;;;;;;2.93;2.73;;;1.40;99.90;;;;;;5053934;28;20184;-71
2023/03/04 03:47:01;;;;;;;1.13;1.13;;;1.30;99.90;;;;;;5054164;28;20176;-71
2023/03/04 03:49:27;;;;;;;4.05;3.60;;;1.30;99.90;;;;;;5054015;28;20190;-71
2023/03/04 03:51:53;;;;;;;7.23;6.83;;;1.20;99.90;;;;;;5054155;28;20640;-71
2023/03/04 03:54:19;;;;;;;2.88;2.67;;;1.20;99.90;;;;;;5053794;28;20415;-71
2023/03/04 03:56:45;;;;;;;0.93;0.93;;;1.20;99.90;;;;;;5035839;28;20184;-72
2023/03/04 03:59:11;;;;;;;0.40;0.40;;;1.10;99.90;;;;;;5053944;28;20192;-71
2023/03/04 04:01:36;;;;;;;4.07;3.77;;;1.10;99.90;;;;;;5035518;28;20208;-71
2023/03/04 04:04:02;;;;;;;11.10;2.43;;;1.10;99.90;;;;;;5053513;28;20165;-71
2023/03/04 04:06:28;;;;;;;4.30;3.97;;;1.10;99.90;;;;;;5053618;28;20587;-71
2023/03/04 04:08:54;;;;;;;3.13;2.90;;;1.10;99.90;;;;;;5053480;28;20197;-71
2023/03/04 04:11:19;;;;;;;3.67;1.33;;;1.10;99.90;;;;;;5053483;28;20223;-71
2023/03/04 04:13:45;;;;;;;4.00;3.30;;;1.00;99.90;;;;;;5053276;28;20826;-71
2023/03/04 04:16:11;;;;;;;1.93;1.83;;;1.00;99.90;;;;;;5053615;28;20173;-71
2023/03/04 04:18:37;;;;;;;1.80;1.80;;;1.10;99.90;;;;;;5053315;28;20172;-71
2023/03/04 04:21:03;;;;;;;1.60;1.60;;;1.00;99.90;;;;;;5053338;28;20175;-71
2023/03/04 04:23:29;;;;;;;5.25;3.55;;;1.10;99.90;;;;;;5052953;28;20176;-71
2023/03/04 04:25:55;;;;;;;5.80;5.50;;;1.00;99.90;;;;;;5035529;28;20177;-72
2023/03/04 04:28:21;;;;;;;2.72;2.55;;;1.10;99.90;;;;;;5053475;28;20165;-71
2023/03/04 04:30:47;;;;;;;0.70;0.70;;;1.10;99.90;;;;;;5053392;28;20546;-71
2023/03/04 04:33:12;;;;;;;1.77;1.70;;;1.10;99.90;;;;;;5053484;28;20417;-71
2023/03/04 04:35:38;;;;;;;0.80;0.80;;;1.10;99.90;;;;;;5053608;28;20317;-71
2023/03/04 04:38:05;;;;;;;5.20;2.90;;;1.00;99.90;;;;;;5053738;28;20648;-71
2023/03/04 04:40:30;;;;;;;2.40;2.17;;;1.10;99.90;;;;;;5053580;28;20439;-70
2023/03/04 04:42:56;;;;;;;5.77;4.87;;;1.10;99.90;;;;;;5053180;28;20200;-72
2023/03/04 04:45:23;;;;;;;5.80;4.03;;;1.00;99.90;;;;;;5053150;28;20612;-71
2023/03/04 04:47:54;;;;;;;2.13;1.95;;;1.10;99.90;;;;;;5053338;28;20160;-72
2023/03/04 04:50:20;;;;;;;1.38;1.35;;;1.20;99.90;;;;;;5053129;28;20192;-71
2023/03/04 04:52:45;;;;;;;2.80;2.10;;;1.20;99.90;;;;;;5053405;28;20279;-71
2023/03/04 04:55:11;;;;;;;1.63;1.63;;;1.10;99.90;;;;;;5053687;28;20194;-70
2023/03/04 04:57:37;;;;;;;7.10;4.20;;;1.00;99.90;;;;;;5053073;28;20412;-71
2023/03/04 05:00:04;;;;;;;2.00;1.73;;;1.00;99.90;;;;;;5053195;28;20190;-71
2023/03/04 05:02:30;;;;;;;1.10;1.10;;;0.90;99.90;;;;;;5035104;28;20248;-70
2023/03/04 05:04:56;;;;;;;4.23;3.87;;;0.90;99.90;;;;;;5052622;28;20254;-72
2023/03/04 05:07:21;;;;;;;3.53;3.27;;;0.80;99.90;;;;;;5053443;28;20168;-71
2023/03/04 05:09:47;;;;;;;4.20;4.03;;;0.90;99.90;;;;;;5056527;28;20191;-71
2023/03/04 05:12:13;;;;;;;0.77;0.77;;;0.90;99.90;;;;;;5057066;28;20753;-72
2023/03/04 05:14:38;;;;;;;1.57;1.57;;;0.90;99.90;;;;;;5056842;28;20182;-71
2023/03/04 05:17:04;;;;;;;2.07;1.97;;;0.80;99.90;;;;;;5057218;28;20182;-71
2023/03/04 05:19:29;;;;;;;1.67;1.67;;;0.80;99.90;;;;;;5056873;28;20196;-70
2023/03/04 05:21:55;;;;;;;2.60;2.50;;;0.70;99.90;;;;;;5057782;28;20199;-71
2023/03/04 05:24:21;;;;;;;1.27;1.10;;;0.80;99.90;;;;;;5057627;28;20254;-71
2023/03/04 05:26:46;;;;;;;0.70;0.70;;;0.90;99.90;;;;;;5057368;28;20172;-71
2023/03/04 05:29:12;;;;;;;0.40;0.40;;;0.80;99.90;;;;;;5057301;28;20664;-71
2023/03/04 05:31:38;;;;;;;1.37;1.27;;;0.80;99.90;;;;;;5057325;28;20176;-71
2023/03/04 05:34:04;;;;;;;0.67;0.63;;;0.80;99.90;;;;;;5056377;28;20204;-71
2023/03/04 05:36:29;;;;;;;2.60;2.43;;;0.70;99.90;;;;;;5056761;28;20467;-71
2023/03/04 05:38:55;;;;;;;3.10;2.83;;;0.80;99.90;;;;;;5056247;28;20192;-71
2023/03/04 05:41:21;;;;;;;2.13;2.03;;;0.80;99.90;;;;;;5056493;28;20233;-72
2023/03/04 05:43:48;;;;;;;1.98;1.88;;;0.70;99.90;;;;;;5056073;28;20198;-71
2023/03/04 05:46:16;;;;;;;2.35;2.25;;;0.70;99.90;;;;;;5056214;28;20237;-71
2023/03/04 05:48:42;;;;;;;1.80;1.70;;;0.70;99.90;;;;;;5056721;28;20160;-72
2023/03/04 05:51:08;;;;;;;3.88;3.58;;;0.80;99.90;;;;;;5056710;28;20171;-71
2023/03/04 05:53:35;;;;;;;1.00;1.00;;;0.80;99.90;;;;;;5056118;28;20178;-71
2023/03/04 05:56:09;;;;;;;2.25;1.15;;;0.80;99.90;;;;;;5055866;28;20168;-70
2023/03/04 05:58:35;;;;;;;5.95;2.25;;;0.80;99.90;;;;;;5056334;28;20190;-70
2023/03/04 06:01:02;;;;;;;0.85;0.85;;;0.70;99.90;;;;;;5056102;28;20191;-71
2023/03/04 06:03:28;;;;;;;4.10;1.45;;;0.70;99.90;;;;;;5056144;28;20203;-71
2023/03/04 06:05:54;;;;;;;0.93;0.93;;;0.80;99.90;;;;;;5055781;28;20175;-71
2023/03/04 06:08:19;;;;;;;1.20;1.20;;;0.80;99.90;;;;;;5055878;28;20436;-71
2023/03/04 06:10:45;;;;;;;5.37;3.47;;;0.90;99.90;;;;;;5055828;28;20270;-71
2023/03/04 06:13:11;;;;;;;2.93;2.00;;;0.90;99.90;;;;;;5055953;28;20402;-71
2023/03/04 06:15:38;;;;;;;1.43;1.37;;;0.80;99.90;;;;;;5055442;28;20889;-69
2023/03/04 06:18:08;;;;;;;2.78;2.67;;;0.70;99.90;;;;;;5055772;28;20412;-72
2023/03/04 06:20:33;;;;;;;2.72;2.60;;;0.70;99.90;;;;;;5055255;28;20195;-73
2023/03/04 06:22:59;;;;;;;20.77;2.37;;;0.60;99.90;;;;;;5055599;28;20252;-73
2023/03/04 06:25:24;;;;;;;1.40;1.30;;;0.70;99.90;;;;;;5037666;28;20176;-72
2023/03/04 06:27:50;;;;;;;0.50;0.50;;;0.90;99.90;;;;;;5055723;28;20180;-72
2023/03/04 06:30:16;;;;;;;2.20;1.97;;;0.90;99.90;;;;;;5055506;28;20214;-71
2023/03/04 06:32:46;;;;;;;0.50;0.50;;;1.00;99.90;;;;;;5055823;28;20656;-72
2023/03/04 06:35:13;;;;;;;0.60;0.60;;;1.10;99.90;;;;;;5055410;28;20578;-72
2023/03/04 06:37:39;;;;;;;1.15;1.15;;;1.10;99.90;;;;;;5055365;28;20175;-71
2023/03/04 06:40:06;;;;;;;2.97;2.77;;;1.30;99.90;;;;;;5055539;28;20700;-71
2023/03/04 06:42:33;;;;;;;3.70;1.67;;;1.40;99.90;;;;;;5055340;28;20455;-71
2023/03/04 06:44:58;;;;;;;2.28;2.17;;;1.40;99.90;;;;;;5055050;28;20168;-71
2023/03/04 06:47:24;;;;;;;3.53;2.43;;;1.40;99.90;;;;;;5055628;28;20171;-72
2023/03/04 06:49:50;;;;;;;2.67;2.50;;;1.40;99.90;;;;;;5055165;28;20219;-72
2023/03/04 06:52:16;;;;;;;1.47;1.47;;;1.40;99.90;;;;;;5055155;28;20226;-71
2023/03/04 06:54:41;;;;;;;1.80;1.70;;;1.50;99.90;;;;;;5054696;28;20175;-71
2023/03/04 06:57:07;;;;;;;2.77;2.10;;;1.60;99.90;;;;;;5036651;28;20511;-70
2023/03/04 06:59:33;;;;;;;2.23;2.13;;;1.60;99.90;;;;;;5053818;28;20190;-73
2023/03/04 07:01:59;;;;;;;1.67;1.65;;;1.70;99.90;;;;;;5054365;28;20634;-70
2023/03/04 07:04:24;;;;;;;2.07;1.97;;;1.80;99.90;;;;;;5036336;28;20185;-70
2023/03/04 07:06:50;;;;;;;3.17;3.07;;;1.90;99.90;;;;;;5053756;28;20411;-70
2023/03/04 07:09:16;;;;;;;8.23;2.23;;;2.00;99.90;;;;;;5053273;28;20615;-69
2023/03/04 07:11:42;;;;;;;1.08;1.08;;;2.10;99.90;;;;;;5053557;28;20205;-70
2023/03/04 07:14:08;;;;;;;4.60;3.53;;;2.30;99.90;;;;;;5054397;28;20178;-70
2023/03/04 07:16:33;;;;;;;3.77;3.57;;;2.30;99.80;;;;;;5053806;28;20423;-69
2023/03/04 07:18:59;;;;;;;1.80;1.70;;;2.40;99.70;;;;;;5054023;28;20193;-69
2023/03/04 07:21:25;;;;;;;4.47;4.27;;;2.60;99.20;;;;;;5053896;28;20228;-69
2023/03/04 07:23:51;;;;;;;5.93;3.80;;;3.10;99.90;;;;;;5053646;28;20506;-69
2023/03/04 07:26:16;;;;;;;5.30;4.87;;;4.30;99.90;;;;;;5054440;28;20171;-69
2023/03/04 07:28:42;;;;;;;6.73;5.10;;;5.80;99.90;;;;;;5054280;28;20185;-69
2023/03/04 07:31:24;;;;;;;9.80;4.63;;;7.40;97.50;;;;;;5053594;28;20245;-69
2023/03/04 07:33:50;;;;;;;8.83;7.93;;;9.10;92.90;;;;;;5054145;28;20517;-70
2023/03/04 07:36:18;;;;;;;20.17;9.20;;;10.70;85.80;;;;;;5054116;28;20404;-70
2023/03/04 07:38:49;;;;;;;6.10;5.60;;;12.00;79.70;;;;;;5053861;28;20419;-70
2023/03/04 07:41:15;;;;;;;4.07;3.73;;;13.10;73.40;;;;;;5053957;28;20388;-70
2023/03/04 07:43:41;;;;;;;5.90;3.00;;;13.90;68.10;;;;;;5053900;28;20887;-70
2023/03/04 07:46:07;;;;;;;7.90;4.27;;;14.50;62.40;;;;;;5053862;28;20397;-70
2023/03/04 07:48:33;;;;;;;10.37;6.20;;;15.00;59.70;;;;;;5053905;28;20405;-68
2023/03/04 07:51:09;;;;;;;3.30;3.00;;;15.50;57.60;;;;;;5053771;28;20454;-68
2023/03/04 07:53:36;;;;;;;4.03;3.30;;;16.00;56.10;;;;;;5053593;28;20239;-68
2023/03/04 07:56:03;;;;;;;5.87;3.77;;;16.70;54.70;;;;;;5053813;28;20441;-68
2023/03/04 07:58:29;;;;;;;8.43;4.83;;;17.30;52.30;;;;;;5053594;28;20424;-68
2023/03/04 08:00:55;;;;;;;3.47;2.77;;;17.80;50.80;;;;;;5053431;28;20432;-68
2023/03/04 08:03:21;;;;;;;3.53;3.23;;;18.40;49.30;;;;;;5053606;28;20423;-68
2023/03/04 08:05:46;;;;;;;5.03;4.10;;;18.80;47.60;;;;;;5053510;28;20198;-68
2023/03/04 08:08:12;;;;;;;4.07;3.50;;;19.20;46.40;;;;;;5053712;28;20200;-68
2023/03/04 08:10:38;;;;;;;8.83;4.00;;;19.50;45.60;;;;;;5053334;28;20190;-68
2023/03/04 08:13:05;;;;;;;4.10;3.70;;;19.90;45.10;;;;;;5053891;28;20173;-68
2023/03/04 08:15:32;;;;;;;5.00;4.10;;;20.40;44.70;;;;;;5053319;28;20430;-69
2023/03/04 08:17:58;;;;;;;5.47;4.90;;;20.80;43.00;;;;;;5053590;28;20864;-69
2023/03/04 08:20:23;;;;;;;8.47;5.67;;;21.10;42.60;;;;;;5053279;28;20435;-68
2023/03/04 08:22:50;;;;;;;4.37;4.07;;;21.50;41.70;;;;;;5053369;28;20193;-68
2023/03/04 08:25:16;;;;;;;4.73;3.83;;;22.00;40.60;;;;;;5053016;28;20538;-69
2023/03/04 08:27:42;;;;;;;6.90;5.27;;;22.40;39.70;;;;;;5053231;28;20413;-69
2023/03/04 08:30:08;;;;;;;3.93;3.47;;;22.60;38.60;;;;;;5053153;28;20205;-69
2023/03/04 08:32:34;;;;;;;7.60;5.10;;;22.70;39.10;;;;;;5053583;28;20166;-70
2023/03/04 08:35:01;;;;;;;5.00;4.60;;;22.90;38.50;;;;;;5053175;28;20759;-70
2023/03/04 08:37:28;;;;;;;7.10;5.90;;;23.10;38.30;;;;;;5053126;28;20573;-70
2023/03/04 08:39:54;;;;;;;8.50;5.93;;;23.50;38.20;;;;;;5053115;28;20465;-70
2023/03/04 08:42:20;;;;;;;7.40;5.53;;;23.60;37.30;;;;;;5052971;28;21023;-70
2023/03/04 08:44:45;;;;;;;6.10;4.27;;;23.50;36.80;;;;;;5056865;28;20178;-70
2023/03/04 08:47:11;;;;;;;6.13;4.23;;;23.80;36.70;;;;;;5057372;28;20227;-70
2023/03/04 08:49:37;;;;;;;5.93;5.30;;;24.00;36.10;;;;;;5057217;28;20264;-70
2023/03/04 08:52:03;;;;;;;6.67;3.77;;;24.30;36.50;;;;;;5057230;28;20172;-70
2023/03/04 08:54:29;;;;;;;6.73;3.83;;;24.60;35.50;;;;;;5039044;28;20487;-70
2023/03/04 08:56:54;;;;;;;5.10;4.47;;;24.60;35.80;;;;;;5057087;28;20185;-70
2023/03/04 08:59:20;;;;;;;6.33;4.73;;;24.60;35.60;;;;;;5056906;28;20217;-70
2023/03/04 09:01:46;;;;;;;7.77;5.60;;;24.40;35.90;;;;;;5057064;28;20205;-70
2023/03/04 09:04:11;;;;;;;8.50;6.20;;;24.60;35.60;;;;;;5056735;28;20201;-70
2023/03/04 09:06:37;;;;;;;7.63;4.87;;;24.70;35.50;;;;;;5057097;28;20758;-70
2023/03/04 09:09:03;;;;;;;7.63;5.30;;;24.50;34.30;;;;;;5056922;28;20274;-70
2023/03/04 09:11:30;;;;;;;5.50;5.00;;;23.90;34.30;;;;;;5056796;28;20392;-70
2023/03/04 09:13:55;;;;;;;7.87;5.57;;;22.70;34.90;;;;;;5056628;28;20401;-70
2023/03/04 09:16:22;;;;;;;5.57;4.60;;;20.90;36.20;;;;;;5038928;28;20469;-70
2023/03/04 09:18:47;;;;;;;5.97;4.00;;;19.60;38.10;;;;;;5056791;28;20228;-70
2023/03/04 09:21:13;;;;;;;7.17;4.00;;;18.90;39.10;;;;;;5056625;28;20504;-70
2023/03/04 09:23:39;;;;;;;5.33;4.53;;;18.50;39.70;;;;;;5056435;28;20212;-69
2023/03/04 09:26:22;;;;;;;5.63;4.00;;;18.50;40.10;;;;;;5056679;28;20394;-70
2023/03/04 09:28:50;;;;;;;6.67;4.40;;;18.80;39.60;;;;;;5056342;28;20627;-70
2023/03/04 09:31:16;;;;;;;6.70;4.23;;;18.90;39.60;;;;;;5056426;28;20470;-70
2023/03/04 09:33:42;;;;;;;6.20;4.43;;;19.30;39.40;;;;;;5056315;28;20786;-70
2023/03/04 09:36:12;;;;;;;4.60;4.20;;;19.70;38.90;;;;;;5056337;28;20170;-70
2023/03/04 09:38:39;;;;;;;4.63;4.30;;;19.80;39.00;;;;;;5056373;28;20261;-70
2023/03/04 09:41:12;;;;;;;5.40;5.00;;;19.70;38.70;;;;;;5038353;28;20391;-70
2023/03/04 09:43:39;;;;;;;6.17;4.60;;;19.50;38.50;;;;;;5056232;28;20758;-70
2023/03/04 09:46:12;;;;;;;9.17;4.50;;;19.60;38.90;;;;;;5056439;28;20408;-70
2023/03/04 09:48:53;;;;;;;4.80;4.30;;;19.40;38.70;;;;;;5056258;28;20403;-70
2023/03/04 09:51:45;;;;;;;4.20;3.90;;;19.40;39.00;;;;;;5055857;28;20440;-70
2023/03/04 09:54:44;;;;;;;5.47;3.90;;;19.50;38.60;;;;;;5055449;28;20397;-70
2023/03/04 09:57:39;;;;;;;6.50;3.90;;;19.90;38.70;;;;;;5056556;28;20436;-70
2023/03/04 10:00:18;;;;;;;7.57;4.00;;;20.10;38.20;;;;;;5055724;28;20425;-70
2023/03/04 10:03:05;;;;;;;3.93;3.60;;;20.10;37.90;;;;;;5055929;28;21007;-70
2023/03/04 10:05:35;;;;;;;4.70;4.30;;;19.50;38.10;;;;;;5055926;28;20420;-70
2023/03/04 10:08:36;;;;;;;5.63;5.13;;;19.40;38.50;;;;;;5056001;28;20371;-70
2023/03/04 10:11:08;;;;;;;4.17;3.77;;;19.00;38.90;;;;;;5055715;28;20423;-70
2023/03/04 10:13:58;;;;;;;7.13;5.80;;;18.70;40.00;;;;;;5037657;28;20391;-70
2023/03/04 10:16:30;;;;;;;4.93;4.37;;;19.10;39.80;;;;;;5055823;28;20491;-70
2023/03/04 10:19:01;;;;;;;3.97;3.53;;;18.30;40.10;;;;;;5055638;28;20507;-70
2023/03/04 10:21:43;;;;;;;5.80;3.90;;;18.00;41.20;;;;;;5056042;28;20420;-69
2023/03/04 10:24:16;;;;;;;5.77;4.30;;;18.00;40.70;;;;;;5055356;28;20409;-69
2023/03/04 10:26:44;;;;;;;9.00;4.30;;;17.40;41.20;;;;;;5055576;28;20432;-70
2023/03/04 10:29:17;;;;;;;5.93;5.30;;;16.70;42.10;;;;;;5055393;28;20432;-70
2023/03/04 10:31:44;;;;;;;6.73;5.60;;;16.00;43.40;;;;;;5055424;28;20476;-70
2023/03/04 10:34:13;;;;;;;6.30;5.73;;;15.90;44.00;;;;;;5055176;28;20403;-70
2023/03/04 10:36:57;;;;;;;3.27;3.07;;;15.50;44.30;;;;;;5055304;28;20403;-70
2023/03/04 10:39:35;;;;;;;6.00;5.47;;;15.40;44.80;;;;;;5037146;28;20444;-69
2023/03/04 10:42:05;;;;;;;6.10;4.57;;;15.20;45.50;;;;;;5055187;28;20440;-70
2023/03/04 10:44:33;;;;;;;6.50;5.83;;;15.20;45.50;;;;;;5054882;28;20413;-69
2023/03/04 10:46:59;;;;;;;7.00;5.77;;;14.80;45.90;;;;;;5055059;28;20397;-69
2023/03/04 10:49:27;;;;;;;7.03;6.20;;;14.60;46.20;;;;;;5055068;28;20475;-69
2023/03/04 10:52:17;;;;;;;5.17;4.07;;;14.30;46.80;;;;;;5055108;28;20413;-69
2023/03/04 10:54:53;;;;;;;7.50;5.00;;;13.90;47.20;;;;;;5054704;28;20412;-69
2023/03/04 10:57:36;;;;;;;6.13;4.50;;;13.80;47.90;;;;;;5054993;28;20414;-69
2023/03/04 11:00:17;;;;;;;10.87;8.40;;;14.10;48.50;;;;;;5054747;28;20894;-70
2023/03/04 11:02:44;;;;;;;7.73;7.00;;;14.00;48.30;;;;;;5054627;28;20484;-69
2023/03/04 11:05:19;;;;;;;8.07;5.83;;;13.80;48.20;;;;;;5054155;28;20402;-69
2023/03/04 11:07:51;;;;;;;6.37;4.67;;;13.30;49.20;;;;;;5054453;28;20415;-69
2023/03/04 11:10:22;;;;;;;8.03;5.60;;;12.90;50.00;;;;;;5054719;28;20418;-69
2023/03/04 11:12:55;;;;;;;8.57;7.97;;;12.90;50.90;;;;;;5054704;28;20480;-69
2023/03/04 11:15:26;;;;;;;8.80;7.00;;;12.80;50.40;;;;;;5054438;28;20440;-69
2023/03/04 11:17:55;;;;;;;10.30;5.93;;;12.60;50.90;;;;;;5054621;28;20405;-69
2023/03/04 11:20:35;;;;;;;6.20;5.60;;;12.20;51.30;;;;;;5054299;28;20433;-69
2023/03/04 11:23:05;;;;;;;7.03;5.43;;;12.00;52.10;;;;;;5054293;28;20451;-69
2023/03/04 11:25:37;;;;;;;6.23;5.70;;;11.90;52.70;;;;;;5054296;28;20408;-69
2023/03/04 11:28:20;;;;;;;8.17;5.90;;;11.70;52.40;;;;;;5054445;28;20393;-69
2023/03/04 11:30:59;;;;;;;11.37;5.87;;;11.40;53.20;;;;;;5054315;28;20779;-70
2023/03/04 11:33:46;;;;;;;10.33;7.83;;;11.00;53.80;;;;;;5053995;28;20404;-69
2023/03/04 11:36:37;;;;;;;7.23;6.47;;;10.50;54.60;;;;;;5054330;28;20752;-69
2023/03/04 11:39:12;;;;;;;15.45;6.05;;;10.00;55.90;;;;;;5054156;28;20511;-69
2023/03/04 11:41:57;;;;;;;13.73;6.53;;;9.90;57.70;;;;;;5054161;28;20203;-69
2023/03/04 11:44:24;;;;;;;14.07;7.43;;;9.90;58.10;;;;;;5053864;28;20402;-69
2023/03/04 11:47:13;;;;;;;11.90;7.27;;;10.00;57.70;;;;;;5036056;28;20413;-69
2023/03/04 11:50:09;;;;;;;7.23;6.53;;;10.00;56.80;;;;;;5053995;28;20909;-69
2023/03/04 11:52:50;;;;;;;11.55;8.00;;;9.70;58.60;;;;;;5054008;28;20408;-69
2023/03/04 11:55:46;;;;;;;6.35;5.85;;;9.60;58.70;;;;;;5053573;28;20251;-68
2023/03/04 11:58:17;;;;;;;6.63;6.00;;;9.30;59.50;;;;;;5053691;28;20229;-69
2023/03/04 12:00:54;;;;;;;13.50;8.95;;;9.30;60.40;;;;;;5053449;28;20194;-69
2023/03/04 12:03:55;;;;;;;7.55;6.03;;;9.10;60.40;;;;;;5053374;28;20193;-69
2023/03/04 12:06:45;;;;;;;13.98;9.40;;;9.10;60.80;;;;;;5053525;28;20179;-69
2023/03/04 12:09:10;;;;;;;9.90;4.57;;;9.20;61.70;;;;;;5035596;28;20202;-69
2023/03/04 12:12:12;;;;;;;8.67;6.33;;;9.10;61.40;;;;;;5053445;28;20166;-69
2023/03/04 12:14:47;;;;;;;13.15;6.45;;;9.10;61.60;;;;;;5053489;28;20237;-69
2023/03/04 12:17:40;;;;;;;18.48;9.13;;;9.00;61.90;;;;;;5053338;28;20162;-69
2023/03/04 12:20:34;;;;;;;10.52;8.85;;;8.80;63.80;;;;;;5053315;28;20197;-69
2023/03/04 12:23:15;;;;;;;6.72;6.00;;;8.90;63.90;;;;;;5053248;28;20194;-69
2023/03/04 12:25:45;;;;;;;10.05;9.15;;;8.80;63.60;;;;;;5053560;28;20639;-69
2023/03/04 12:28:22;;;;;;;8.63;3.67;;;8.70;64.40;;;;;;5035526;28;20524;-69
2023/03/04 12:31:18;;;;;;;6.55;6.15;;;8.70;65.10;;;;;;5053233;28;20637;-69
2023/03/04 12:33:49;;;;;;;6.40;5.80;;;8.70;65.40;;;;;;5053136;28;20174;-69
2023/03/04 12:36:27;;;;;;;12.75;11.45;;;8.80;65.50;;;;;;5053266;28;20170;-68
2023/03/04 12:38:58;;;;;;;6.55;4.75;;;8.70;65.90;;;;;;5053238;28;20170;-69
2023/03/04 12:41:35;;;;;;;6.63;6.13;;;8.70;66.30;;;;;;5052988;28;20500;-69
2023/03/04 12:44:12;;;;;;;6.20;5.78;;;8.70;66.50;;;;;;5053199;28;20181;-69
2023/03/04 12:46:53;;;;;;;8.93;5.63;;;8.60;66.50;;;;;;5053055;28;20162;-69
2023/03/04 12:49:33;;;;;;;9.57;8.88;;;8.40;67.30;;;;;;5053132;28;20185;-69
2023/03/04 12:52:05;;;;;;;8.68;7.97;;;8.10;68.60;;;;;;5053439;28;20158;-69
2023/03/04 12:54:32;;;;;;;6.57;5.00;;;8.00;70.10;;;;;;5052922;28;20174;-69
2023/03/04 12:57:17;;;;;;;8.98;6.50;;;8.00;70.90;;;;;;5053035;28;20257;-68
2023/03/04 12:59:56;;;;;;;6.60;4.18;;;8.20;70.40;;;;;;5052988;28;20701;-69
2023/03/04 13:02:30;;;;;;;10.25;6.80;;;8.10;70.70;;;;;;5052740;28;20249;-69
2023/03/04 13:05:23;;;;;;;7.85;7.13;;;8.20;71.60;;;;;;5052839;28;20169;-69